Аэропорт: Сары-Арка. Караганда

ICAO: UAKK

METAR:
2021-04-21 19:00:00
UAKK 211900Z 12002MPS 080V180 CAVOK M03/M08 Q1029 R05/0///70 NOSIG RMK QFE724/0965
METAR:
2021-04-21 17:02:00
TAF UAKK 211702Z 2118/2218 VRB02MPS 9999 SCT020 BKN100 TX08/2210Z TNM13/2201Z TEMPO 2118/2202 3100 BR SCT005 BECMG 2202/2204 04006MPS SCT040 TEMPO 2203/2213 04010MPS